sensor_id;sensor_type;location;lat;lon;timestamp;pressure;altitude;pressure_sealevel;temperature;humidity
30744;BME280;17486;46.738;7.622;2023-05-15T00:02:03;94994.66;;;11.92;69.30
30744;BME280;17486;46.738;7.622;2023-05-15T00:04:28;95011.00;;;12.10;69.50
30744;BME280;17486;46.738;7.622;2023-05-15T00:06:54;95016.13;;;12.11;68.89
30744;BME280;17486;46.738;7.622;2023-05-15T00:09:19;95008.25;;;12.13;69.02
30744;BME280;17486;46.738;7.622;2023-05-15T00:11:45;95013.44;;;12.13;69.23
30744;BME280;17486;46.738;7.622;2023-05-15T00:14:10;95011.56;;;12.15;69.04
30744;BME280;17486;46.738;7.622;2023-05-15T00:16:35;95012.44;;;12.16;69.32
30744;BME280;17486;46.738;7.622;2023-05-15T00:19:01;95010.56;;;12.18;69.06
30744;BME280;17486;46.738;7.622;2023-05-15T00:21:26;95009.72;;;12.17;69.07
30744;BME280;17486;46.738;7.622;2023-05-15T00:23:52;95010.56;;;12.18;69.10
30744;BME280;17486;46.738;7.622;2023-05-15T00:26:18;95007.03;;;12.19;69.07
30744;BME280;17486;46.738;7.622;2023-05-15T00:28:43;95004.50;;;12.17;69.02
30744;BME280;17486;46.738;7.622;2023-05-15T00:31:09;95005.44;;;12.16;68.87
30744;BME280;17486;46.738;7.622;2023-05-15T00:33:36;94995.47;;;12.08;68.96
30744;BME280;17486;46.738;7.622;2023-05-15T00:36:01;95000.88;;;12.05;69.17
30744;BME280;17486;46.738;7.622;2023-05-15T00:38:27;94999.53;;;11.98;69.48
30744;BME280;17486;46.738;7.622;2023-05-15T00:40:53;95000.56;;;11.96;69.36
30744;BME280;17486;46.738;7.622;2023-05-15T00:43:19;94993.63;;;11.94;69.46
30744;BME280;17486;46.738;7.622;2023-05-15T00:45:46;94978.84;;;11.81;69.75
30744;BME280;17486;46.738;7.622;2023-05-15T00:48:12;94975.56;;;11.77;69.54
30744;BME280;17486;46.738;7.622;2023-05-15T00:50:39;94989.97;;;11.83;69.54
30744;BME280;17486;46.738;7.622;2023-05-15T00:53:06;94988.59;;;11.77;69.91
30744;BME280;17486;46.738;7.622;2023-05-15T00:55:32;94994.56;;;11.79;70.57
30744;BME280;17486;46.738;7.622;2023-05-15T00:58:00;94996.22;;;11.80;69.92
30744;BME280;17486;46.738;7.622;2023-05-15T01:00:26;94993.53;;;11.82;70.63
30744;BME280;17486;46.738;7.622;2023-05-15T01:02:53;94995.38;;;11.80;70.09
30744;BME280;17486;46.738;7.622;2023-05-15T01:05:18;94983.72;;;11.71;70.63
30744;BME280;17486;46.738;7.622;2023-05-15T01:07:50;94952.97;;;11.47;70.44
30744;BME280;17486;46.738;7.622;2023-05-15T01:10:16;94962.19;;;11.53;70.55
30744;BME280;17486;46.738;7.622;2023-05-15T01:12:45;94985.03;;;11.64;71.03
30744;BME280;17486;46.738;7.622;2023-05-15T01:15:11;94985.84;;;11.64;70.69
30744;BME280;17486;46.738;7.622;2023-05-15T01:17:37;94990.06;;;11.67;71.39
30744;BME280;17486;46.738;7.622;2023-05-15T01:20:04;94989.03;;;11.69;71.03
30744;BME280;17486;46.738;7.622;2023-05-15T01:27:57;94970.06;;;11.67;70.70
30744;BME280;17486;46.738;7.622;2023-05-15T01:30:27;94990.38;;;11.76;70.90
30744;BME280;17486;46.738;7.622;2023-05-15T01:35:37;94983.81;;;11.69;71.12
30744;BME280;17486;46.738;7.622;2023-05-15T01:41:28;94984.59;;;11.71;71.19
30744;BME280;17486;46.738;7.622;2023-05-15T01:44:27;94988.69;;;11.75;70.99
30744;BME280;17486;46.738;7.622;2023-05-15T01:47:02;94977.16;;;11.80;71.33
30744;BME280;17486;46.738;7.622;2023-05-15T01:49:30;94965.69;;;11.68;70.70
30744;BME280;17486;46.738;7.622;2023-05-15T01:52:04;94983.13;;;11.82;71.01
30744;BME280;17486;46.738;7.622;2023-05-15T01:54:32;94974.75;;;11.76;71.04
30744;BME280;17486;46.738;7.622;2023-05-15T01:56:58;94950.59;;;11.58;70.86
30744;BME280;17486;46.738;7.622;2023-05-15T01:59:24;94969.88;;;11.70;70.62
30744;BME280;17486;46.738;7.622;2023-05-15T02:01:51;94982.47;;;11.78;70.44
30744;BME280;17486;46.738;7.622;2023-05-15T02:04:17;94963.53;;;11.60;70.77
30744;BME280;17486;46.738;7.622;2023-05-15T02:06:43;94988.22;;;11.69;71.17
30744;BME280;17486;46.738;7.622;2023-05-15T02:09:12;94975.97;;;11.55;71.57
30744;BME280;17486;46.738;7.622;2023-05-15T02:11:38;94988.66;;;11.61;71.75
30744;BME280;17486;46.738;7.622;2023-05-15T02:14:04;94978.13;;;11.63;71.27
30744;BME280;17486;46.738;7.622;2023-05-15T02:16:30;94977.47;;;11.59;70.77
30744;BME280;17486;46.738;7.622;2023-05-15T02:18:55;94981.19;;;11.55;71.08
30744;BME280;17486;46.738;7.622;2023-05-15T02:21:21;94966.56;;;11.52;71.16
30744;BME280;17486;46.738;7.622;2023-05-15T02:23:46;94971.59;;;11.55;71.44
30744;BME280;17486;46.738;7.622;2023-05-15T02:26:35;94975.06;;;11.56;71.71
30744;BME280;17486;46.738;7.622;2023-05-15T02:29:19;94969.84;;;11.56;72.01
30744;BME280;17486;46.738;7.622;2023-05-15T02:36:59;94973.19;;;11.58;71.74
30744;BME280;17486;46.738;7.622;2023-05-15T02:39:26;94959.97;;;11.47;71.82
30744;BME280;17486;46.738;7.622;2023-05-15T02:41:52;94972.25;;;11.59;71.82
30744;BME280;17486;46.738;7.622;2023-05-15T02:44:18;94981.84;;;11.58;71.19
30744;BME280;17486;46.738;7.622;2023-05-15T02:46:46;94973.94;;;11.60;71.67
30744;BME280;17486;46.738;7.622;2023-05-15T02:49:12;94980.84;;;11.61;71.07
30744;BME280;17486;46.738;7.622;2023-05-15T02:51:38;94970.94;;;11.52;71.24
30744;BME280;17486;46.738;7.622;2023-05-15T02:54:03;94984.16;;;11.63;71.47
30744;BME280;17486;46.738;7.622;2023-05-15T02:56:29;94958.66;;;11.54;71.99
30744;BME280;17486;46.738;7.622;2023-05-15T02:58:55;94965.22;;;11.61;71.73
30744;BME280;17486;46.738;7.622;2023-05-15T03:01:20;94976.09;;;11.68;71.83
30744;BME280;17486;46.738;7.622;2023-05-15T03:03:46;94983.63;;;11.72;71.27
30744;BME280;17486;46.738;7.622;2023-05-15T03:06:11;94971.56;;;11.71;71.17
30744;BME280;17486;46.738;7.622;2023-05-15T03:08:36;94967.81;;;11.61;71.11
30744;BME280;17486;46.738;7.622;2023-05-15T03:11:02;94982.72;;;11.73;70.88
30744;BME280;17486;46.738;7.622;2023-05-15T03:13:27;94991.19;;;11.77;71.40
30744;BME280;17486;46.738;7.622;2023-05-15T03:15:52;94985.97;;;11.77;71.25
30744;BME280;17486;46.738;7.622;2023-05-15T03:18:18;94988.22;;;11.69;71.21
30744;BME280;17486;46.738;7.622;2023-05-15T03:20:44;94984.56;;;11.57;71.24
30744;BME280;17486;46.738;7.622;2023-05-15T03:23:09;94976.16;;;11.52;71.73
30744;BME280;17486;46.738;7.622;2023-05-15T03:25:35;94979.69;;;11.51;71.81
30744;BME280;17486;46.738;7.622;2023-05-15T03:28:00;94983.22;;;11.50;71.54
30744;BME280;17486;46.738;7.622;2023-05-15T03:30:25;94979.00;;;11.47;71.57
30744;BME280;17486;46.738;7.622;2023-05-15T03:32:51;94977.53;;;11.43;71.78
30744;BME280;17486;46.738;7.622;2023-05-15T03:35:16;94975.84;;;11.42;72.11
30744;BME280;17486;46.738;7.622;2023-05-15T03:37:41;94965.84;;;11.34;71.72
30744;BME280;17486;46.738;7.622;2023-05-15T03:40:07;94971.47;;;11.42;71.58
30744;BME280;17486;46.738;7.622;2023-05-15T03:42:32;94971.47;;;11.42;71.90
30744;BME280;17486;46.738;7.622;2023-05-15T03:44:58;94976.69;;;11.42;71.78
30744;BME280;17486;46.738;7.622;2023-05-15T03:47:23;94978.34;;;11.43;71.89
30744;BME280;17486;46.738;7.622;2023-05-15T03:49:49;94975.00;;;11.41;72.01
30744;BME280;17486;46.738;7.622;2023-05-15T03:52:14;94973.31;;;11.40;71.81
30744;BME280;17486;46.738;7.622;2023-05-15T03:54:41;94982.72;;;11.43;71.78
30744;BME280;17486;46.738;7.622;2023-05-15T03:57:07;94982.63;;;11.44;72.06
30744;BME280;17486;46.738;7.622;2023-05-15T03:59:32;94980.22;;;11.41;71.66
30744;BME280;17486;46.738;7.622;2023-05-15T04:01:58;94976.03;;;11.39;71.81
30744;BME280;17486;46.738;7.622;2023-05-15T04:04:23;94979.28;;;11.42;71.69
30744;BME280;17486;46.738;7.622;2023-05-15T04:06:49;94982.72;;;11.43;71.66
30744;BME280;17486;46.738;7.622;2023-05-15T04:09:15;94970.16;;;11.35;71.15
30744;BME280;17486;46.738;7.622;2023-05-15T04:11:40;94977.72;;;11.40;71.56
30744;BME280;17486;46.738;7.622;2023-05-15T04:14:06;94950.84;;;11.23;71.42
30744;BME280;17486;46.738;7.622;2023-05-15T04:16:31;94970.34;;;11.32;71.40
30744;BME280;17486;46.738;7.622;2023-05-15T04:18:57;94970.34;;;11.32;70.63
30744;BME280;17486;46.738;7.622;2023-05-15T04:21:22;94974.34;;;11.38;71.20
30744;BME280;17486;46.738;7.622;2023-05-15T04:23:47;94987.09;;;11.42;71.17
30744;BME280;17486;46.738;7.622;2023-05-15T04:26:13;94979.88;;;11.48;70.73
30744;BME280;17486;46.738;7.622;2023-05-15T04:28:38;94987.31;;;11.54;70.46
30744;BME280;17486;46.738;7.622;2023-05-15T04:31:03;94945.97;;;11.33;70.72
30744;BME280;17486;46.738;7.622;2023-05-15T04:33:29;94979.91;;;11.62;70.91
30744;BME280;17486;46.738;7.622;2023-05-15T04:35:54;94966.38;;;11.55;70.74
30744;BME280;17486;46.738;7.622;2023-05-15T04:38:20;94952.72;;;11.52;71.13
30744;BME280;17486;46.738;7.622;2023-05-15T04:40:45;94970.41;;;11.61;70.48
30744;BME280;17486;46.738;7.622;2023-05-15T04:43:11;94956.91;;;11.54;70.08
30744;BME280;17486;46.738;7.622;2023-05-15T04:45:36;94976.28;;;11.65;70.46
30744;BME280;17486;46.738;7.622;2023-05-15T04:48:02;94976.94;;;11.68;70.21
30744;BME280;17486;46.738;7.622;2023-05-15T04:50:27;94978.41;;;11.72;70.06
30744;BME280;17486;46.738;7.622;2023-05-15T04:52:53;94990.53;;;11.73;69.91
30744;BME280;17486;46.738;7.622;2023-05-15T04:55:18;94979.44;;;11.70;70.33
30744;BME280;17486;46.738;7.622;2023-05-15T04:57:45;94975.63;;;11.61;69.65
30744;BME280;17486;46.738;7.622;2023-05-15T05:00:11;94983.16;;;11.66;69.59
30744;BME280;17486;46.738;7.622;2023-05-15T05:02:38;94987.53;;;11.65;70.37
30744;BME280;17486;46.738;7.622;2023-05-15T05:05:04;94979.16;;;11.60;70.31
30744;BME280;17486;46.738;7.622;2023-05-15T05:07:31;94994.97;;;11.57;70.02
30744;BME280;17486;46.738;7.622;2023-05-15T05:09:56;94989.91;;;11.54;69.95
30744;BME280;17486;46.738;7.622;2023-05-15T05:12:22;94987.31;;;11.54;70.44
30744;BME280;17486;46.738;7.622;2023-05-15T05:14:47;94993.28;;;11.56;70.67
30744;BME280;17486;46.738;7.622;2023-05-15T05:17:13;94989.75;;;11.57;70.92
30744;BME280;17486;46.738;7.622;2023-05-15T05:19:38;94993.53;;;11.51;71.34
30744;BME280;17486;46.738;7.622;2023-05-15T05:22:04;94984.81;;;11.52;70.86
30744;BME280;17486;46.738;7.622;2023-05-15T05:24:30;94991.59;;;11.55;71.34
30744;BME280;17486;46.738;7.622;2023-05-15T05:26:57;94974.81;;;11.44;71.65
30744;BME280;17486;46.738;7.622;2023-05-15T05:29:23;94971.31;;;11.45;72.09
30744;BME280;17486;46.738;7.622;2023-05-15T05:31:48;94989.38;;;11.63;72.53
30744;BME280;17486;46.738;7.622;2023-05-15T05:34:13;94941.88;;;11.43;72.08
30744;BME280;17486;46.738;7.622;2023-05-15T05:36:39;95000.22;;;11.71;72.25
30744;BME280;17486;46.738;7.622;2023-05-15T05:39:04;95003.31;;;11.78;72.07
30744;BME280;17486;46.738;7.622;2023-05-15T05:41:30;95007.41;;;11.82;71.99
30744;BME280;17486;46.738;7.622;2023-05-15T05:43:55;94995.28;;;11.81;71.87
30744;BME280;17486;46.738;7.622;2023-05-15T05:46:21;94995.09;;;11.84;72.09
30744;BME280;17486;46.738;7.622;2023-05-15T05:48:46;94968.38;;;11.66;71.91
30744;BME280;17486;46.738;7.622;2023-05-15T05:51:11;94993.91;;;11.75;71.60
30744;BME280;17486;46.738;7.622;2023-05-15T05:53:37;94996.16;;;11.82;72.01
30744;BME280;17486;46.738;7.622;2023-05-15T05:56:03;95005.28;;;11.89;71.55
30744;BME280;17486;46.738;7.622;2023-05-15T05:58:28;95005.06;;;11.92;71.98
30744;BME280;17486;46.738;7.622;2023-05-15T06:00:53;94992.81;;;11.94;71.29
30744;BME280;17486;46.738;7.622;2023-05-15T06:03:19;95004.66;;;12.00;71.32
30744;BME280;17486;46.738;7.622;2023-05-15T06:05:45;95010.63;;;12.02;71.58
30744;BME280;17486;46.738;7.622;2023-05-15T06:08:10;94998.53;;;12.01;71.22
30744;BME280;17486;46.738;7.622;2023-05-15T06:10:36;95004.13;;;12.09;71.19
30744;BME280;17486;46.738;7.622;2023-05-15T06:13:01;94974.34;;;11.99;70.72
30744;BME280;17486;46.738;7.622;2023-05-15T06:15:27;94981.50;;;12.09;70.84
30744;BME280;17486;46.738;7.622;2023-05-15T06:17:52;94995.09;;;12.15;70.74
30744;BME280;17486;46.738;7.622;2023-05-15T06:20:17;94994.91;;;12.18;70.62
30744;BME280;17486;46.738;7.622;2023-05-15T06:22:43;94991.38;;;12.19;70.46
30744;BME280;17486;46.738;7.622;2023-05-15T06:25:08;95000.88;;;12.20;70.46
30744;BME280;17486;46.738;7.622;2023-05-15T06:27:38;94992.31;;;12.18;70.61
30744;BME280;17486;46.738;7.622;2023-05-15T06:30:04;95005.72;;;12.26;71.04
30744;BME280;17486;46.738;7.622;2023-05-15T06:32:31;95009.84;;;12.30;70.83
30744;BME280;17486;46.738;7.622;2023-05-15T06:34:57;94984.78;;;12.13;70.34
30744;BME280;17486;46.738;7.622;2023-05-15T06:37:23;94996.13;;;12.26;70.14
30744;BME280;17486;46.738;7.622;2023-05-15T06:39:48;95007.75;;;12.35;70.32
30744;BME280;17486;46.738;7.622;2023-05-15T06:42:13;95009.44;;;12.36;69.99
30744;BME280;17486;46.738;7.622;2023-05-15T06:44:39;94992.88;;;12.23;70.00
30744;BME280;17486;46.738;7.622;2023-05-15T06:47:04;94990.81;;;12.28;69.71
30744;BME280;17486;46.738;7.622;2023-05-15T06:49:30;95007.59;;;12.38;69.71
30744;BME280;17486;46.738;7.622;2023-05-15T06:51:56;95011.50;;;12.46;69.54
30744;BME280;17486;46.738;7.622;2023-05-15T06:54:21;95015.50;;;12.51;69.32
30744;BME280;17486;46.738;7.622;2023-05-15T06:56:46;95011.69;;;12.57;69.44
30744;BME280;17486;46.738;7.622;2023-05-15T06:59:12;95015.69;;;12.63;69.39
30744;BME280;17486;46.738;7.622;2023-05-15T07:01:37;95016.22;;;12.68;68.94
30744;BME280;17486;46.738;7.622;2023-05-15T07:04:03;95014.28;;;12.71;68.78
30744;BME280;17486;46.738;7.622;2023-05-15T07:06:29;95015.59;;;12.79;67.93
30744;BME280;17486;46.738;7.622;2023-05-15T07:08:56;95008.38;;;12.82;67.79
30744;BME280;17486;46.738;7.622;2023-05-15T07:11:22;95018.34;;;12.90;67.52
30744;BME280;17486;46.738;7.622;2023-05-15T07:13:47;95014.59;;;12.94;67.33
30744;BME280;17486;46.738;7.622;2023-05-15T07:16:12;94988.91;;;12.88;68.00
30744;BME280;17486;46.738;7.622;2023-05-15T07:18:38;95008.53;;;13.08;68.94
30744;BME280;17486;46.738;7.622;2023-05-15T07:21:03;95007.94;;;13.17;68.35
30744;BME280;17486;46.738;7.622;2023-05-15T07:23:28;95013.22;;;13.30;67.70
30744;BME280;17486;46.738;7.622;2023-05-15T07:25:54;95009.22;;;13.39;67.81
30744;BME280;17486;46.738;7.622;2023-05-15T07:28:20;95012.81;;;13.51;66.85
30744;BME280;17486;46.738;7.622;2023-05-15T07:30:45;95008.84;;;13.58;66.19
30744;BME280;17486;46.738;7.622;2023-05-15T07:33:11;94992.78;;;13.64;66.14
30744;BME280;17486;46.738;7.622;2023-05-15T07:35:36;94969.66;;;13.58;65.59
30744;BME280;17486;46.738;7.622;2023-05-15T07:38:02;95019.69;;;13.92;64.93
30744;BME280;17486;46.738;7.622;2023-05-15T07:40:27;95015.00;;;13.97;65.00
30744;BME280;17486;46.738;7.622;2023-05-15T07:42:53;95009.34;;;13.90;64.43
30744;BME280;17486;46.738;7.622;2023-05-15T07:45:18;95020.63;;;13.91;65.26
30744;BME280;17486;46.738;7.622;2023-05-15T07:47:44;95010.69;;;13.96;65.32
30744;BME280;17486;46.738;7.622;2023-05-15T07:50:11;95011.66;;;14.08;66.02
30744;BME280;17486;46.738;7.622;2023-05-15T07:52:36;95010.31;;;14.15;65.85
30744;BME280;17486;46.738;7.622;2023-05-15T07:55:02;95018.16;;;14.28;65.52
30744;BME280;17486;46.738;7.622;2023-05-15T07:57:28;95011.56;;;14.35;65.14
30744;BME280;17486;46.738;7.622;2023-05-15T07:59:54;94999.75;;;14.42;65.73
30744;BME280;17486;46.738;7.622;2023-05-15T08:02:20;94977.03;;;14.43;66.08
30744;BME280;17486;46.738;7.622;2023-05-15T08:04:45;94987.81;;;14.64;65.79
30744;BME280;17486;46.738;7.622;2023-05-15T08:07:12;94978.88;;;14.80;64.80
30744;BME280;17486;46.738;7.622;2023-05-15T08:09:37;95004.38;;;15.02;64.57
30744;BME280;17486;46.738;7.622;2023-05-15T08:12:22;95004.53;;;15.12;64.03
30744;BME280;17486;46.738;7.622;2023-05-15T08:14:51;95002.13;;;15.21;63.10
30744;BME280;17486;46.738;7.622;2023-05-15T08:17:17;94966.09;;;15.12;62.10
30744;BME280;17486;46.738;7.622;2023-05-15T08:19:43;94997.88;;;15.32;61.31
30744;BME280;17486;46.738;7.622;2023-05-15T08:22:09;94997.03;;;15.31;61.93
30744;BME280;17486;46.738;7.622;2023-05-15T08:24:36;94994.91;;;15.36;62.94
30744;BME280;17486;46.738;7.622;2023-05-15T08:27:01;94992.78;;;15.41;61.66
30744;BME280;17486;46.738;7.622;2023-05-15T08:29:28;94973.78;;;15.27;60.24
30744;BME280;17486;46.738;7.622;2023-05-15T08:31:53;94986.78;;;15.28;59.82
30744;BME280;17486;46.738;7.622;2023-05-15T08:34:19;94989.72;;;15.23;60.31
30744;BME280;17486;46.738;7.622;2023-05-15T08:36:44;94987.84;;;15.25;60.34
30744;BME280;17486;46.738;7.622;2023-05-15T08:39:09;94985.72;;;15.31;60.55
30744;BME280;17486;46.738;7.622;2023-05-15T08:41:42;94984.66;;;15.33;60.38
30744;BME280;17486;46.738;7.622;2023-05-15T08:44:11;94960.19;;;15.21;59.79
30744;BME280;17486;46.738;7.622;2023-05-15T08:46:37;94988.59;;;15.39;59.27
30744;BME280;17486;46.738;7.622;2023-05-15T08:51:54;94979.88;;;15.27;59.28
30744;BME280;17486;46.738;7.622;2023-05-15T08:54:20;94980.72;;;15.28;59.46
30744;BME280;17486;46.738;7.622;2023-05-15T08:56:46;94983.41;;;15.26;59.24
30744;BME280;17486;46.738;7.622;2023-05-15T08:59:11;94973.19;;;15.23;58.83
30744;BME280;17486;46.738;7.622;2023-05-15T09:01:37;94944.38;;;14.99;58.35
30744;BME280;17486;46.738;7.622;2023-05-15T09:04:03;94967.34;;;15.06;58.21
30744;BME280;17486;46.738;7.622;2023-05-15T09:06:29;94971.47;;;15.11;58.16
30744;BME280;17486;46.738;7.622;2023-05-15T09:08:56;94970.72;;;15.08;58.75
30744;BME280;17486;46.738;7.622;2023-05-15T09:11:23;94968.09;;;15.08;58.79
30744;BME280;17486;46.738;7.622;2023-05-15T09:13:48;94964.53;;;15.09;58.46
30744;BME280;17486;46.738;7.622;2023-05-15T09:16:14;94965.78;;;15.04;58.81
30744;BME280;17486;46.738;7.622;2023-05-15T09:18:40;94945.00;;;14.89;58.46
30744;BME280;17486;46.738;7.622;2023-05-15T09:21:22;94968.03;;;14.97;58.80
30744;BME280;17486;46.738;7.622;2023-05-15T09:23:49;94963.84;;;14.95;58.39
30744;BME280;17486;46.738;7.622;2023-05-15T09:26:15;94956.00;;;14.95;58.02
30744;BME280;17486;46.738;7.622;2023-05-15T09:28:40;94959.25;;;14.85;57.78
30744;BME280;17486;46.738;7.622;2023-05-15T09:31:06;94960.94;;;14.86;58.54
30744;BME280;17486;46.738;7.622;2023-05-15T09:33:38;94951.31;;;14.87;58.72
30744;BME280;17486;46.738;7.622;2023-05-15T09:36:05;94946.25;;;14.97;58.91
30744;BME280;17486;46.738;7.622;2023-05-15T09:38:39;94938.28;;;14.98;59.08
30744;BME280;17486;46.738;7.622;2023-05-15T09:41:06;94939.72;;;15.02;58.49
30744;BME280;17486;46.738;7.622;2023-05-15T09:43:36;94938.22;;;15.11;58.39
30744;BME280;17486;46.738;7.622;2023-05-15T09:46:02;94931.50;;;15.20;58.33
30744;BME280;17486;46.738;7.622;2023-05-15T09:48:28;94918.66;;;15.28;58.56
30744;BME280;17486;46.738;7.622;2023-05-15T09:50:54;94908.56;;;15.35;58.56
30744;BME280;17486;46.738;7.622;2023-05-15T09:53:21;94917.09;;;15.61;60.29
30744;BME280;17486;46.738;7.622;2023-05-15T09:55:47;94933.88;;;15.83;58.91
30744;BME280;17486;46.738;7.622;2023-05-15T09:58:17;94923.41;;;16.05;57.75
30744;BME280;17486;46.738;7.622;2023-05-15T10:00:43;94922.00;;;16.24;58.64
30744;BME280;17486;46.738;7.622;2023-05-15T10:03:09;94916.97;;;16.44;58.13
30744;BME280;17486;46.738;7.622;2023-05-15T10:05:35;94923.66;;;16.70;59.81
30744;BME280;17486;46.738;7.622;2023-05-15T10:08:01;94915.13;;;16.89;58.01
30744;BME280;17486;46.738;7.622;2023-05-15T10:10:28;94910.84;;;17.00;54.19
30744;BME280;17486;46.738;7.622;2023-05-15T10:12:55;94911.63;;;17.12;53.27
30744;BME280;17486;46.738;7.622;2023-05-15T10:15:26;94888.59;;;17.04;50.18
30744;BME280;17486;46.738;7.622;2023-05-15T10:17:52;94903.56;;;17.03;50.72
30744;BME280;17486;46.738;7.622;2023-05-15T10:20:21;94888.28;;;16.97;50.88
30744;BME280;17486;46.738;7.622;2023-05-15T10:22:49;94894.31;;;17.09;49.75
30744;BME280;17486;46.738;7.622;2023-05-15T10:27:43;94898.59;;;17.21;51.86
30744;BME280;17486;46.738;7.622;2023-05-15T10:30:11;94885.53;;;17.31;50.48
30744;BME280;17486;46.738;7.622;2023-05-15T10:32:38;94884.94;;;17.49;49.54
30744;BME280;17486;46.738;7.622;2023-05-15T10:35:07;94879.91;;;17.57;47.92
30744;BME280;17486;46.738;7.622;2023-05-15T10:37:34;94886.84;;;17.58;48.51
30744;BME280;17486;46.738;7.622;2023-05-15T10:40:00;94885.94;;;17.48;47.82
30744;BME280;17486;46.738;7.622;2023-05-15T10:42:28;94862.50;;;17.23;48.04
30744;BME280;17486;46.738;7.622;2023-05-15T10:44:54;94880.31;;;17.20;49.14
30744;BME280;17486;46.738;7.622;2023-05-15T10:47:24;94873.63;;;17.16;49.53
30744;BME280;17486;46.738;7.622;2023-05-15T10:49:50;94852.91;;;17.01;50.07
30744;BME280;17486;46.738;7.622;2023-05-15T10:52:16;94870.31;;;17.14;48.99
30744;BME280;17486;46.738;7.622;2023-05-15T10:54:41;94874.47;;;17.16;49.56
30744;BME280;17486;46.738;7.622;2023-05-15T10:57:07;94865.97;;;17.24;48.50
30744;BME280;17486;46.738;7.622;2023-05-15T10:59:33;94850.84;;;17.16;49.12
30744;BME280;17486;46.738;7.622;2023-05-15T11:02:18;94862.06;;;17.39;49.04
30744;BME280;17486;46.738;7.622;2023-05-15T11:04:44;94854.13;;;17.51;48.55
30744;BME280;17486;46.738;7.622;2023-05-15T11:07:11;94861.19;;;17.50;46.83
30744;BME280;17486;46.738;7.622;2023-05-15T11:09:38;94868.75;;;17.44;47.26
30744;BME280;17486;46.738;7.622;2023-05-15T11:12:08;94872.00;;;17.36;46.48
30744;BME280;17486;46.738;7.622;2023-05-15T11:14:35;94860.31;;;17.29;47.14
30744;BME280;17486;46.738;7.622;2023-05-15T11:17:03;94867.94;;;17.32;47.40
30744;BME280;17486;46.738;7.622;2023-05-15T11:24:58;94879.97;;;17.13;50.92
30744;BME280;17486;46.738;7.622;2023-05-15T11:27:24;94874.38;;;17.06;49.88
30744;BME280;17486;46.738;7.622;2023-05-15T11:30:06;94876.81;;;16.87;50.03
30744;BME280;17486;46.738;7.622;2023-05-15T11:37:55;94904.81;;;16.42;53.78
30744;BME280;17486;46.738;7.622;2023-05-15T11:40:31;94904.94;;;16.41;55.02
30744;BME280;17486;46.738;7.622;2023-05-15T11:45:33;94909.59;;;16.49;55.75
30744;BME280;17486;46.738;7.622;2023-05-15T11:48:00;94918.88;;;16.53;55.57
30744;BME280;17486;46.738;7.622;2023-05-15T11:50:26;94922.44;;;16.52;55.34
30744;BME280;17486;46.738;7.622;2023-05-15T11:52:52;94920.34;;;16.46;55.72
30744;BME280;17486;46.738;7.622;2023-05-15T11:55:18;94918.91;;;16.41;54.24
30744;BME280;17486;46.738;7.622;2023-05-15T11:57:47;94918.19;;;16.17;53.44
30744;BME280;17486;46.738;7.622;2023-05-15T12:00:13;94922.31;;;15.85;54.71
30744;BME280;17486;46.738;7.622;2023-05-15T12:02:38;94917.53;;;15.55;55.40
30744;BME280;17486;46.738;7.622;2023-05-15T12:05:07;94912.91;;;15.23;55.57
30744;BME280;17486;46.738;7.622;2023-05-15T12:07:43;94915.44;;;15.00;56.39
30744;BME280;17486;46.738;7.622;2023-05-15T12:10:10;94920.63;;;14.89;56.68
30744;BME280;17486;46.738;7.622;2023-05-15T12:12:43;94920.03;;;14.72;58.04
30744;BME280;17486;46.738;7.622;2023-05-15T12:15:09;94920.78;;;14.62;58.38
30744;BME280;17486;46.738;7.622;2023-05-15T12:17:36;94920.59;;;14.52;59.23
30744;BME280;17486;46.738;7.622;2023-05-15T12:20:02;94913.16;;;14.46;59.54
30744;BME280;17486;46.738;7.622;2023-05-15T12:22:35;94907.75;;;14.36;59.60
30744;BME280;17486;46.738;7.622;2023-05-15T12:25:01;94889.25;;;14.26;60.71
30744;BME280;17486;46.738;7.622;2023-05-15T12:27:26;94901.16;;;14.30;60.16
30744;BME280;17486;46.738;7.622;2023-05-15T12:29:52;94893.44;;;14.29;59.38
30744;BME280;17486;46.738;7.622;2023-05-15T12:32:18;94860.09;;;14.06;60.89
30744;BME280;17486;46.738;7.622;2023-05-15T12:34:44;94878.22;;;13.97;61.12
30744;BME280;17486;46.738;7.622;2023-05-15T12:37:11;94872.03;;;13.85;61.91
30744;BME280;17486;46.738;7.622;2023-05-15T12:39:49;94869.09;;;13.76;62.64
30744;BME280;17486;46.738;7.622;2023-05-15T12:42:14;94896.81;;;13.92;63.97
30744;BME280;17486;46.738;7.622;2023-05-15T12:44:41;94875.06;;;13.91;64.35
30744;BME280;17486;46.738;7.622;2023-05-15T12:47:07;94897.00;;;14.15;64.76
30744;BME280;17486;46.738;7.622;2023-05-15T12:49:35;94887.56;;;14.25;64.37
30744;BME280;17486;46.738;7.622;2023-05-15T12:52:07;94880.22;;;14.43;63.99
30744;BME280;17486;46.738;7.622;2023-05-15T12:54:37;94878.88;;;14.62;64.24
30744;BME280;17486;46.738;7.622;2023-05-15T12:57:03;94874.00;;;14.70;63.05
30744;BME280;17486;46.738;7.622;2023-05-15T12:59:28;94880.28;;;14.67;62.21
30744;BME280;17486;46.738;7.622;2023-05-15T13:01:54;94876.00;;;14.66;62.81
30744;BME280;17486;46.738;7.622;2023-05-15T13:04:19;94874.50;;;14.62;62.67
30744;BME280;17486;46.738;7.622;2023-05-15T13:06:45;94875.75;;;14.69;62.85
30744;BME280;17486;46.738;7.622;2023-05-15T13:09:11;94873.41;;;14.78;62.72
30744;BME280;17486;46.738;7.622;2023-05-15T13:11:42;94880.94;;;14.82;61.50
30744;BME280;17486;46.738;7.622;2023-05-15T13:14:08;94882.13;;;14.78;60.16
30744;BME280;17486;46.738;7.622;2023-05-15T13:16:42;94884.34;;;14.71;59.54
30744;BME280;17486;46.738;7.622;2023-05-15T13:19:07;94884.13;;;14.74;59.47
30744;BME280;17486;46.738;7.622;2023-05-15T13:21:34;94888.56;;;14.85;59.85
30744;BME280;17486;46.738;7.622;2023-05-15T13:23:59;94877.66;;;14.91;59.85
30744;BME280;17486;46.738;7.622;2023-05-15T13:26:25;94903.84;;;15.16;59.39
30744;BME280;17486;46.738;7.622;2023-05-15T13:28:50;94906.00;;;15.22;58.86
30744;BME280;17486;46.738;7.622;2023-05-15T13:31:16;94895.09;;;15.04;59.90
30744;BME280;17486;46.738;7.622;2023-05-15T13:33:41;94922.78;;;15.19;60.17